sensor_id;sensor_type;location;lat;lon;timestamp;P1;durP1;ratioP1;P2;durP2;ratioP2
9280;SDS011;4679;47.966;7.958;2022-10-10T06:26:52;6.57;;;2.03;;
9280;SDS011;4679;47.966;7.958;2022-10-10T06:28:53;4.40;;;1.90;;
9280;SDS011;4679;47.966;7.958;2022-10-10T06:30:57;3.23;;;2.87;;
9280;SDS011;4679;47.966;7.958;2022-10-10T06:32:59;5.77;;;3.17;;
9280;SDS011;4679;47.966;7.958;2022-10-10T06:35:01;2.90;;;2.70;;
9280;SDS011;4679;47.966;7.958;2022-10-10T06:37:03;2.10;;;1.90;;
9280;SDS011;4679;47.966;7.958;2022-10-10T06:39:04;2.70;;;2.50;;
9280;SDS011;4679;47.966;7.958;2022-10-10T06:41:07;3.23;;;2.50;;
9280;SDS011;4679;47.966;7.958;2022-10-10T06:43:11;3.30;;;2.40;;
9280;SDS011;4679;47.966;7.958;2022-10-10T06:45:14;2.53;;;2.13;;
9280;SDS011;4679;47.966;7.958;2022-10-10T06:47:15;2.27;;;1.70;;
9280;SDS011;4679;47.966;7.958;2022-10-10T06:49:17;4.57;;;2.73;;
9280;SDS011;4679;47.966;7.958;2022-10-10T06:51:19;3.63;;;2.53;;
9280;SDS011;4679;47.966;7.958;2022-10-10T06:53:20;1.80;;;1.70;;
9280;SDS011;4679;47.966;7.958;2022-10-10T06:55:22;2.17;;;1.83;;
9280;SDS011;4679;47.966;7.958;2022-10-10T06:57:24;3.70;;;2.10;;
9280;SDS011;4679;47.966;7.958;2022-10-10T06:59:27;3.93;;;2.30;;
9280;SDS011;4679;47.966;7.958;2022-10-10T07:01:28;2.00;;;1.80;;
9280;SDS011;4679;47.966;7.958;2022-10-10T07:03:30;3.57;;;2.00;;
9280;SDS011;4679;47.966;7.958;2022-10-10T07:05:32;2.70;;;1.67;;
9280;SDS011;4679;47.966;7.958;2022-10-10T07:07:34;2.50;;;1.77;;
9280;SDS011;4679;47.966;7.958;2022-10-10T07:09:35;3.70;;;1.73;;
9280;SDS011;4679;47.966;7.958;2022-10-10T07:11:37;3.27;;;1.90;;
9280;SDS011;4679;47.966;7.958;2022-10-10T07:13:44;1.90;;;1.80;;
9280;SDS011;4679;47.966;7.958;2022-10-10T07:15:47;6.57;;;2.60;;
9280;SDS011;4679;47.966;7.958;2022-10-10T07:17:55;4.83;;;1.63;;
9280;SDS011;4679;47.966;7.958;2022-10-10T07:19:57;1.70;;;1.60;;
9280;SDS011;4679;47.966;7.958;2022-10-10T07:21:59;3.70;;;2.17;;
9280;SDS011;4679;47.966;7.958;2022-10-10T07:24:00;5.83;;;2.30;;
9280;SDS011;4679;47.966;7.958;2022-10-10T07:26:03;2.70;;;1.83;;
9280;SDS011;4679;47.966;7.958;2022-10-10T07:28:07;2.27;;;2.10;;
9280;SDS011;4679;47.966;7.958;2022-10-10T07:30:10;2.10;;;2.00;;
9280;SDS011;4679;47.966;7.958;2022-10-10T07:32:13;3.30;;;2.13;;
9280;SDS011;4679;47.966;7.958;2022-10-10T07:34:15;3.33;;;2.13;;
9280;SDS011;4679;47.966;7.958;2022-10-10T07:36:17;3.00;;;2.43;;
9280;SDS011;4679;47.966;7.958;2022-10-10T07:38:19;2.10;;;1.90;;
9280;SDS011;4679;47.966;7.958;2022-10-10T07:40:21;5.13;;;1.97;;
9280;SDS011;4679;47.966;7.958;2022-10-10T07:42:23;5.40;;;2.00;;
9280;SDS011;4679;47.966;7.958;2022-10-10T07:44:25;4.80;;;2.00;;
9280;SDS011;4679;47.966;7.958;2022-10-10T07:46:27;3.30;;;2.07;;
9280;SDS011;4679;47.966;7.958;2022-10-10T07:48:32;2.30;;;2.10;;
9280;SDS011;4679;47.966;7.958;2022-10-10T07:50:33;2.20;;;2.10;;
9280;SDS011;4679;47.966;7.958;2022-10-10T07:52:35;3.70;;;2.17;;
9280;SDS011;4679;47.966;7.958;2022-10-10T07:54:37;2.03;;;1.70;;
9280;SDS011;4679;47.966;7.958;2022-10-10T07:56:38;3.80;;;2.03;;
9280;SDS011;4679;47.966;7.958;2022-10-10T07:58:40;1.80;;;1.70;;
9280;SDS011;4679;47.966;7.958;2022-10-10T08:00:42;1.70;;;1.60;;
9280;SDS011;4679;47.966;7.958;2022-10-10T08:02:44;4.87;;;1.63;;
9280;SDS011;4679;47.966;7.958;2022-10-10T08:04:47;3.97;;;1.50;;
9280;SDS011;4679;47.966;7.958;2022-10-10T08:06:49;2.63;;;1.60;;
9280;SDS011;4679;47.966;7.958;2022-10-10T08:08:50;2.00;;;1.60;;
9280;SDS011;4679;47.966;7.958;2022-10-10T08:10:52;1.60;;;1.50;;
9280;SDS011;4679;47.966;7.958;2022-10-10T08:12:54;2.93;;;1.93;;
9280;SDS011;4679;47.966;7.958;2022-10-10T08:14:55;3.33;;;1.50;;
9280;SDS011;4679;47.966;7.958;2022-10-10T08:16:58;1.90;;;1.43;;
9280;SDS011;4679;47.966;7.958;2022-10-10T08:19:00;3.47;;;1.30;;
9280;SDS011;4679;47.966;7.958;2022-10-10T08:21:03;3.27;;;1.43;;
9280;SDS011;4679;47.966;7.958;2022-10-10T08:23:06;4.43;;;1.70;;
9280;SDS011;4679;47.966;7.958;2022-10-10T08:25:08;5.47;;;1.40;;
9280;SDS011;4679;47.966;7.958;2022-10-10T08:27:10;1.80;;;1.20;;
9280;SDS011;4679;47.966;7.958;2022-10-10T08:29:13;3.27;;;1.17;;
9280;SDS011;4679;47.966;7.958;2022-10-10T08:31:16;1.43;;;1.10;;
9280;SDS011;4679;47.966;7.958;2022-10-10T08:33:18;2.63;;;1.20;;
9280;SDS011;4679;47.966;7.958;2022-10-10T08:35:20;2.63;;;1.10;;
9280;SDS011;4679;47.966;7.958;2022-10-10T08:37:23;1.67;;;1.10;;
9280;SDS011;4679;47.966;7.958;2022-10-10T08:39:25;1.27;;;0.90;;
9280;SDS011;4679;47.966;7.958;2022-10-10T08:41:31;4.13;;;1.90;;
9280;SDS011;4679;47.966;7.958;2022-10-10T08:43:40;1.77;;;1.13;;
9280;SDS011;4679;47.966;7.958;2022-10-10T08:45:46;1.67;;;1.20;;
9280;SDS011;4679;47.966;7.958;2022-10-10T08:47:49;1.17;;;1.00;;
9280;SDS011;4679;47.966;7.958;2022-10-10T08:49:55;2.80;;;0.90;;
9280;SDS011;4679;47.966;7.958;2022-10-10T08:52:02;5.17;;;1.10;;
9280;SDS011;4679;47.966;7.958;2022-10-10T08:54:11;3.17;;;0.97;;
9280;SDS011;4679;47.966;7.958;2022-10-10T08:56:15;3.33;;;1.00;;
9280;SDS011;4679;47.966;7.958;2022-10-10T08:58:21;4.20;;;0.80;;
9280;SDS011;4679;47.966;7.958;2022-10-10T09:00:30;1.20;;;1.10;;
9280;SDS011;4679;47.966;7.958;2022-10-10T09:02:39;2.27;;;0.87;;
9280;SDS011;4679;47.966;7.958;2022-10-10T09:04:44;2.20;;;0.80;;
9280;SDS011;4679;47.966;7.958;2022-10-10T09:06:50;1.57;;;0.80;;
9280;SDS011;4679;47.966;7.958;2022-10-10T09:09:02;1.17;;;0.70;;
9280;SDS011;4679;47.966;7.958;2022-10-10T09:11:19;1.43;;;0.90;;
9280;SDS011;4679;47.966;7.958;2022-10-10T09:13:30;1.70;;;0.70;;
9280;SDS011;4679;47.966;7.958;2022-10-10T09:15:37;1.57;;;0.60;;
9280;SDS011;4679;47.966;7.958;2022-10-10T09:17:46;1.57;;;0.70;;
9280;SDS011;4679;47.966;7.958;2022-10-10T09:19:58;0.70;;;0.70;;
9280;SDS011;4679;47.966;7.958;2022-10-10T09:22:09;0.77;;;0.67;;
9280;SDS011;4679;47.966;7.958;2022-10-10T09:24:15;2.73;;;0.70;;
9280;SDS011;4679;47.966;7.958;2022-10-10T09:26:22;0.93;;;0.80;;
9280;SDS011;4679;47.966;7.958;2022-10-10T09:28:32;1.80;;;0.70;;
9280;SDS011;4679;47.966;7.958;2022-10-10T09:30:39;2.33;;;0.70;;
9280;SDS011;4679;47.966;7.958;2022-10-10T09:32:47;1.20;;;0.63;;
9280;SDS011;4679;47.966;7.958;2022-10-10T09:34:56;2.33;;;0.60;;
9280;SDS011;4679;47.966;7.958;2022-10-10T09:37:04;4.27;;;1.23;;
9280;SDS011;4679;47.966;7.958;2022-10-10T09:39:15;2.27;;;0.70;;
9280;SDS011;4679;47.966;7.958;2022-10-10T09:41:24;1.77;;;0.90;;
9280;SDS011;4679;47.966;7.958;2022-10-10T09:43:35;3.00;;;0.90;;
9280;SDS011;4679;47.966;7.958;2022-10-10T09:45:40;0.70;;;0.57;;
9280;SDS011;4679;47.966;7.958;2022-10-10T09:47:46;1.03;;;0.60;;
9280;SDS011;4679;47.966;7.958;2022-10-10T09:49:51;3.20;;;0.70;;
9280;SDS011;4679;47.966;7.958;2022-10-10T09:51:53;5.90;;;0.97;;
9280;SDS011;4679;47.966;7.958;2022-10-10T09:53:54;1.30;;;0.70;;
9280;SDS011;4679;47.966;7.958;2022-10-10T09:55:56;1.53;;;0.77;;
9280;SDS011;4679;47.966;7.958;2022-10-10T09:58:03;3.57;;;0.80;;
9280;SDS011;4679;47.966;7.958;2022-10-10T10:00:24;3.33;;;0.90;;
9280;SDS011;4679;47.966;7.958;2022-10-10T10:02:32;2.93;;;0.70;;
9280;SDS011;4679;47.966;7.958;2022-10-10T10:04:34;1.53;;;0.60;;
9280;SDS011;4679;47.966;7.958;2022-10-10T10:06:36;2.10;;;0.60;;
9280;SDS011;4679;47.966;7.958;2022-10-10T10:08:46;1.77;;;0.70;;
9280;SDS011;4679;47.966;7.958;2022-10-10T10:10:53;1.67;;;0.60;;
9280;SDS011;4679;47.966;7.958;2022-10-10T10:12:58;4.57;;;0.70;;
9280;SDS011;4679;47.966;7.958;2022-10-10T10:15:03;3.53;;;0.70;;
9280;SDS011;4679;47.966;7.958;2022-10-10T10:17:07;0.80;;;0.60;;
9280;SDS011;4679;47.966;7.958;2022-10-10T10:19:27;2.23;;;0.77;;
9280;SDS011;4679;47.966;7.958;2022-10-10T10:21:37;1.13;;;0.67;;
9280;SDS011;4679;47.966;7.958;2022-10-10T10:23:53;2.87;;;0.70;;
9280;SDS011;4679;47.966;7.958;2022-10-10T10:25:57;2.17;;;0.73;;
9280;SDS011;4679;47.966;7.958;2022-10-10T10:28:18;2.97;;;0.80;;
9280;SDS011;4679;47.966;7.958;2022-10-10T10:30:22;2.20;;;0.80;;
9280;SDS011;4679;47.966;7.958;2022-10-10T10:32:34;4.20;;;0.80;;
9280;SDS011;4679;47.966;7.958;2022-10-10T10:34:51;3.60;;;0.93;;
9280;SDS011;4679;47.966;7.958;2022-10-10T10:37:05;2.00;;;0.70;;
9280;SDS011;4679;47.966;7.958;2022-10-10T10:39:21;2.07;;;0.63;;
9280;SDS011;4679;47.966;7.958;2022-10-10T10:41:37;1.63;;;0.53;;
9280;SDS011;4679;47.966;7.958;2022-10-10T10:43:52;2.30;;;0.80;;
9280;SDS011;4679;47.966;7.958;2022-10-10T10:46:08;2.20;;;0.80;;
9280;SDS011;4679;47.966;7.958;2022-10-10T10:48:19;3.63;;;0.90;;
9280;SDS011;4679;47.966;7.958;2022-10-10T10:50:45;2.13;;;0.80;;
9280;SDS011;4679;47.966;7.958;2022-10-10T10:52:58;2.40;;;0.60;;
9280;SDS011;4679;47.966;7.958;2022-10-10T10:55:13;3.13;;;0.93;;
9280;SDS011;4679;47.966;7.958;2022-10-10T10:57:24;4.47;;;1.00;;
9280;SDS011;4679;47.966;7.958;2022-10-10T10:59:38;5.47;;;0.90;;
9280;SDS011;4679;47.966;7.958;2022-10-10T11:01:52;3.92;;;0.90;;
9280;SDS011;4679;47.966;7.958;2022-10-10T11:04:00;2.42;;;0.80;;
9280;SDS011;4679;47.966;7.958;2022-10-10T11:06:05;1.50;;;0.80;;
9280;SDS011;4679;47.966;7.958;2022-10-10T11:10:49;4.03;;;0.88;;
9280;SDS011;4679;47.966;7.958;2022-10-10T11:13:02;5.90;;;1.10;;
9280;SDS011;4679;47.966;7.958;2022-10-10T11:15:15;7.90;;;0.85;;
9280;SDS011;4679;47.966;7.958;2022-10-10T11:17:22;4.80;;;1.92;;
9280;SDS011;4679;47.966;7.958;2022-10-10T11:19:31;3.05;;;0.90;;
9280;SDS011;4679;47.966;7.958;2022-10-10T11:21:37;2.92;;;0.98;;
9280;SDS011;4679;47.966;7.958;2022-10-10T11:23:46;5.68;;;1.50;;
9280;SDS011;4679;47.966;7.958;2022-10-10T11:25:54;3.25;;;0.90;;
9280;SDS011;4679;47.966;7.958;2022-10-10T11:28:01;3.25;;;1.27;;
9280;SDS011;4679;47.966;7.958;2022-10-10T11:30:12;1.83;;;0.70;;
9280;SDS011;4679;47.966;7.958;2022-10-10T11:32:18;0.88;;;0.75;;
9280;SDS011;4679;47.966;7.958;2022-10-10T11:34:25;4.13;;;1.33;;
9280;SDS011;4679;47.966;7.958;2022-10-10T11:36:33;4.20;;;0.93;;
9280;SDS011;4679;47.966;7.958;2022-10-10T11:38:37;1.77;;;1.00;;
9280;SDS011;4679;47.966;7.958;2022-10-10T11:40:48;4.05;;;0.98;;
9280;SDS011;4679;47.966;7.958;2022-10-10T11:42:55;4.72;;;0.90;;
9280;SDS011;4679;47.966;7.958;2022-10-10T11:45:03;2.65;;;0.68;;
9280;SDS011;4679;47.966;7.958;2022-10-10T11:47:15;5.45;;;0.77;;
9280;SDS011;4679;47.966;7.958;2022-10-10T11:49:27;2.60;;;0.90;;
9280;SDS011;4679;47.966;7.958;2022-10-10T11:51:40;2.00;;;0.77;;
9280;SDS011;4679;47.966;7.958;2022-10-10T11:53:46;7.28;;;1.73;;
9280;SDS011;4679;47.966;7.958;2022-10-10T11:55:53;3.35;;;1.05;;
9280;SDS011;4679;47.966;7.958;2022-10-10T12:00:34;3.88;;;1.38;;
9280;SDS011;4679;47.966;7.958;2022-10-10T12:02:42;4.88;;;1.10;;
9280;SDS011;4679;47.966;7.958;2022-10-10T12:04:45;3.60;;;0.90;;
9280;SDS011;4679;47.966;7.958;2022-10-10T12:06:49;3.13;;;0.80;;
9280;SDS011;4679;47.966;7.958;2022-10-10T12:08:57;4.35;;;0.80;;
9280;SDS011;4679;47.966;7.958;2022-10-10T12:11:05;5.68;;;0.70;;
9280;SDS011;4679;47.966;7.958;2022-10-10T12:13:19;4.65;;;1.20;;
9280;SDS011;4679;47.966;7.958;2022-10-10T12:15:28;2.92;;;0.73;;
9280;SDS011;4679;47.966;7.958;2022-10-10T12:17:37;4.22;;;1.02;;
9280;SDS011;4679;47.966;7.958;2022-10-10T12:19:44;3.92;;;0.90;;
9280;SDS011;4679;47.966;7.958;2022-10-10T12:21:52;3.58;;;1.10;;
9280;SDS011;4679;47.966;7.958;2022-10-10T12:24:00;3.58;;;1.40;;
9280;SDS011;4679;47.966;7.958;2022-10-10T12:26:05;5.28;;;1.08;;
9280;SDS011;4679;47.966;7.958;2022-10-10T12:28:21;6.25;;;0.98;;
9280;SDS011;4679;47.966;7.958;2022-10-10T12:30:25;4.10;;;0.73;;
9280;SDS011;4679;47.966;7.958;2022-10-10T12:32:28;3.88;;;0.90;;
9280;SDS011;4679;47.966;7.958;2022-10-10T12:34:42;2.85;;;0.95;;
9280;SDS011;4679;47.966;7.958;2022-10-10T12:36:57;6.13;;;1.38;;
9280;SDS011;4679;47.966;7.958;2022-10-10T12:41:52;5.28;;;1.00;;
9280;SDS011;4679;47.966;7.958;2022-10-10T12:46:23;7.82;;;1.40;;
9280;SDS011;4679;47.966;7.958;2022-10-10T12:48:27;6.07;;;0.95;;
9280;SDS011;4679;47.966;7.958;2022-10-10T12:50:31;4.32;;;1.10;;
9280;SDS011;4679;47.966;7.958;2022-10-10T12:52:36;3.42;;;0.90;;
9280;SDS011;4679;47.966;7.958;2022-10-10T12:54:48;9.40;;;1.60;;
9280;SDS011;4679;47.966;7.958;2022-10-10T12:57:03;4.72;;;1.13;;
9280;SDS011;4679;47.966;7.958;2022-10-10T12:59:15;3.55;;;0.88;;
9280;SDS011;4679;47.966;7.958;2022-10-10T13:01:21;5.70;;;1.23;;
9280;SDS011;4679;47.966;7.958;2022-10-10T13:03:27;5.55;;;1.50;;
9280;SDS011;4679;47.966;7.958;2022-10-10T13:05:35;3.70;;;1.17;;
9280;SDS011;4679;47.966;7.958;2022-10-10T13:07:40;3.45;;;0.90;;
9280;SDS011;4679;47.966;7.958;2022-10-10T13:09:43;5.90;;;1.50;;
9280;SDS011;4679;47.966;7.958;2022-10-10T13:11:51;5.90;;;1.75;;
9280;SDS011;4679;47.966;7.958;2022-10-10T13:13:55;7.30;;;1.08;;
9280;SDS011;4679;47.966;7.958;2022-10-10T13:16:04;3.35;;;1.40;;
9280;SDS011;4679;47.966;7.958;2022-10-10T13:18:09;4.70;;;1.23;;
9280;SDS011;4679;47.966;7.958;2022-10-10T13:20:19;6.00;;;1.20;;
9280;SDS011;4679;47.966;7.958;2022-10-10T13:22:30;9.80;;;1.30;;
9280;SDS011;4679;47.966;7.958;2022-10-10T13:24:33;5.18;;;1.20;;
9280;SDS011;4679;47.966;7.958;2022-10-10T13:26:36;8.15;;;1.10;;
9280;SDS011;4679;47.966;7.958;2022-10-10T13:28:40;6.97;;;1.00;;
9280;SDS011;4679;47.966;7.958;2022-10-10T13:30:44;8.10;;;1.25;;
9280;SDS011;4679;47.966;7.958;2022-10-10T13:32:47;6.05;;;1.15;;
9280;SDS011;4679;47.966;7.958;2022-10-10T13:34:51;2.50;;;0.90;;
9280;SDS011;4679;47.966;7.958;2022-10-10T13:36:56;6.88;;;1.20;;
9280;SDS011;4679;47.966;7.958;2022-10-10T13:39:00;3.47;;;1.08;;
9280;SDS011;4679;47.966;7.958;2022-10-10T13:41:02;8.98;;;1.48;;
9280;SDS011;4679;47.966;7.958;2022-10-10T13:43:04;7.30;;;1.40;;
9280;SDS011;4679;47.966;7.958;2022-10-10T13:47:40;9.18;;;1.30;;
9280;SDS011;4679;47.966;7.958;2022-10-10T13:49:53;5.63;;;0.98;;
9280;SDS011;4679;47.966;7.958;2022-10-10T13:51:59;6.75;;;1.13;;
9280;SDS011;4679;47.966;7.958;2022-10-10T13:54:12;4.05;;;1.10;;
9280;SDS011;4679;47.966;7.958;2022-10-10T13:56:43;7.90;;;1.15;;
9280;SDS011;4679;47.966;7.958;2022-10-10T13:58:46;6.88;;;1.95;;
9280;SDS011;4679;47.966;7.958;2022-10-10T14:00:54;7.88;;;1.33;;
9280;SDS011;4679;47.966;7.958;2022-10-10T14:02:57;4.15;;;1.30;;
9280;SDS011;4679;47.966;7.958;2022-10-10T14:05:03;7.07;;;1.33;;
9280;SDS011;4679;47.966;7.958;2022-10-10T14:07:09;6.78;;;1.02;;
9280;SDS011;4679;47.966;7.958;2022-10-10T14:09:17;6.85;;;1.65;;
9280;SDS011;4679;47.966;7.958;2022-10-10T14:11:22;2.97;;;1.00;;
9280;SDS011;4679;47.966;7.958;2022-10-10T14:13:28;6.68;;;1.85;;
9280;SDS011;4679;47.966;7.958;2022-10-10T14:15:33;6.05;;;1.33;;
9280;SDS011;4679;47.966;7.958;2022-10-10T14:17:37;4.80;;;1.25;;
9280;SDS011;4679;47.966;7.958;2022-10-10T14:19:39;8.45;;;1.33;;
9280;SDS011;4679;47.966;7.958;2022-10-10T14:21:41;7.05;;;1.40;;
9280;SDS011;4679;47.966;7.958;2022-10-10T14:23:43;5.30;;;0.90;;
9280;SDS011;4679;47.966;7.958;2022-10-10T14:25:47;4.30;;;1.50;;
9280;SDS011;4679;47.966;7.958;2022-10-10T14:27:50;6.57;;;1.25;;
9280;SDS011;4679;47.966;7.958;2022-10-10T14:29:52;4.55;;;1.33;;
9280;SDS011;4679;47.966;7.958;2022-10-10T14:31:55;3.85;;;1.27;;
9280;SDS011;4679;47.966;7.958;2022-10-10T14:33:56;2.42;;;1.20;;
9280;SDS011;4679;47.966;7.958;2022-10-10T14:35:58;4.88;;;1.10;;
9280;SDS011;4679;47.966;7.958;2022-10-10T14:38:00;6.22;;;1.65;;
9280;SDS011;4679;47.966;7.958;2022-10-10T14:40:02;3.97;;;1.13;;
9280;SDS011;4679;47.966;7.958;2022-10-10T14:42:12;5.35;;;1.10;;
9280;SDS011;4679;47.966;7.958;2022-10-10T14:44:14;4.97;;;1.20;;
9280;SDS011;4679;47.966;7.958;2022-10-10T14:46:17;5.90;;;1.40;;
9280;SDS011;4679;47.966;7.958;2022-10-10T14:48:19;6.43;;;1.10;;
9280;SDS011;4679;47.966;7.958;2022-10-10T14:50:22;6.80;;;1.30;;
9280;SDS011;4679;47.966;7.958;2022-10-10T14:52:26;4.90;;;1.58;;
9280;SDS011;4679;47.966;7.958;2022-10-10T14:54:28;8.07;;;1.60;;
9280;SDS011;4679;47.966;7.958;2022-10-10T14:56:29;5.15;;;1.10;;
9280;SDS011;4679;47.966;7.958;2022-10-10T14:58:33;5.60;;;1.10;;
9280;SDS011;4679;47.966;7.958;2022-10-10T15:00:34;2.63;;;1.02;;
9280;SDS011;4679;47.966;7.958;2022-10-10T15:02:36;4.60;;;1.30;;
9280;SDS011;4679;47.966;7.958;2022-10-10T15:04:38;6.97;;;1.30;;
9280;SDS011;4679;47.966;7.958;2022-10-10T15:06:40;7.35;;;1.40;;
9280;SDS011;4679;47.966;7.958;2022-10-10T15:08:42;6.72;;;1.05;;
9280;SDS011;4679;47.966;7.958;2022-10-10T15:10:43;3.42;;;1.15;;
9280;SDS011;4679;47.966;7.958;2022-10-10T15:12:46;5.03;;;1.40;;
9280;SDS011;4679;47.966;7.958;2022-10-10T15:14:50;6.85;;;1.40;;
9280;SDS011;4679;47.966;7.958;2022-10-10T15:16:51;11.20;;;1.55;;
9280;SDS011;4679;47.966;7.958;2022-10-10T15:18:53;5.05;;;1.25;;
9280;SDS011;4679;47.966;7.958;2022-10-10T15:20:55;3.55;;;1.15;;
9280;SDS011;4679;47.966;7.958;2022-10-10T15:22:57;4.88;;;1.20;;
9280;SDS011;4679;47.966;7.958;2022-10-10T15:24:59;5.72;;;1.20;;
9280;SDS011;4679;47.966;7.958;2022-10-10T15:27:01;7.38;;;1.33;;
9280;SDS011;4679;47.966;7.958;2022-10-10T15:29:02;7.53;;;1.73;;
9280;SDS011;4679;47.966;7.958;2022-10-10T15:31:06;4.00;;;1.30;;
9280;SDS011;4679;47.966;7.958;2022-10-10T15:33:07;7.82;;;0.98;;
9280;SDS011;4679;47.966;7.958;2022-10-10T15:35:10;5.25;;;1.33;;
9280;SDS011;4679;47.966;7.958;2022-10-10T15:37:14;7.82;;;1.35;;
9280;SDS011;4679;47.966;7.958;2022-10-10T15:39:16;5.20;;;1.55;;
9280;SDS011;4679;47.966;7.958;2022-10-10T15:41:17;5.90;;;1.20;;
9280;SDS011;4679;47.966;7.958;2022-10-10T15:43:20;8.15;;;1.35;;
9280;SDS011;4679;47.966;7.958;2022-10-10T15:45:21;6.57;;;1.02;;
9280;SDS011;4679;47.966;7.958;2022-10-10T15:47:25;4.93;;;1.10;;
9280;SDS011;4679;47.966;7.958;2022-10-10T15:49:27;7.22;;;1.50;;
9280;SDS011;4679;47.966;7.958;2022-10-10T15:51:29;4.18;;;1.40;;
9280;SDS011;4679;47.966;7.958;2022-10-10T15:53:31;3.65;;;1.20;;
9280;SDS011;4679;47.966;7.958;2022-10-10T15:55:33;8.13;;;1.33;;
9280;SDS011;4679;47.966;7.958;2022-10-10T15:57:41;2.93;;;1.67;;
9280;SDS011;4679;47.966;7.958;2022-10-10T15:59:43;5.67;;;1.10;;
9280;SDS011;4679;47.966;7.958;2022-10-10T16:01:45;6.77;;;1.17;;
9280;SDS011;4679;47.966;7.958;2022-10-10T16:03:48;5.00;;;1.33;;
9280;SDS011;4679;47.966;7.958;2022-10-10T16:05:50;4.77;;;1.40;;
9280;SDS011;4679;47.966;7.958;2022-10-10T16:07:51;7.20;;;1.33;;
9280;SDS011;4679;47.966;7.958;2022-10-10T16:09:54;5.70;;;1.47;;
9280;SDS011;4679;47.966;7.958;2022-10-10T16:11:57;8.40;;;2.07;;
9280;SDS011;4679;47.966;7.958;2022-10-10T16:13:58;8.40;;;1.40;;
9280;SDS011;4679;47.966;7.958;2022-10-10T16:16:01;6.53;;;1.30;;
9280;SDS011;4679;47.966;7.958;2022-10-10T16:18:05;6.00;;;1.53;;
9280;SDS011;4679;47.966;7.958;2022-10-10T16:20:09;4.77;;;1.50;;
9280;SDS011;4679;47.966;7.958;2022-10-10T16:22:11;9.80;;;2.37;;
9280;SDS011;4679;47.966;7.958;2022-10-10T16:24:12;6.37;;;1.80;;
9280;SDS011;4679;47.966;7.958;2022-10-10T16:26:15;8.03;;;1.50;;
9280;SDS011;4679;47.966;7.958;2022-10-10T16:28:18;5.27;;;1.60;;
9280;SDS011;4679;47.966;7.958;2022-10-10T16:30:20;7.57;;;1.57;;
9280;SDS011;4679;47.966;7.958;2022-10-10T16:32:22;6.13;;;1.80;;
9280;SDS011;4679;47.966;7.958;2022-10-10T16:34:23;6.17;;;1.80;;
9280;SDS011;4679;47.966;7.958;2022-10-10T16:36:27;5.23;;;1.60;;
9280;SDS011;4679;47.966;7.958;2022-10-10T16:38:30;8.23;;;1.80;;
9280;SDS011;4679;47.966;7.958;2022-10-10T16:40:33;8.63;;;2.50;;
9280;SDS011;4679;47.966;7.958;2022-10-10T16:42:35;4.70;;;1.97;;
9280;SDS011;4679;47.966;7.958;2022-10-10T16:44:37;3.63;;;1.40;;
9280;SDS011;4679;47.966;7.958;2022-10-10T16:46:39;9.37;;;1.70;;
9280;SDS011;4679;47.966;7.958;2022-10-10T16:48:40;5.90;;;1.50;;
9280;SDS011;4679;47.966;7.958;2022-10-10T16:50:42;7.10;;;1.83;;
9280;SDS011;4679;47.966;7.958;2022-10-10T16:52:45;5.87;;;2.57;;
9280;SDS011;4679;47.966;7.958;2022-10-10T16:54:47;8.20;;;1.43;;
9280;SDS011;4679;47.966;7.958;2022-10-10T16:56:48;9.07;;;3.13;;
9280;SDS011;4679;47.966;7.958;2022-10-10T16:58:50;5.13;;;2.30;;
9280;SDS011;4679;47.966;7.958;2022-10-10T17:00:52;5.20;;;1.53;;
9280;SDS011;4679;47.966;7.958;2022-10-10T17:02:54;8.97;;;1.47;;
9280;SDS011;4679;47.966;7.958;2022-10-10T17:04:55;10.37;;;2.10;;
9280;SDS011;4679;47.966;7.958;2022-10-10T17:06:57;8.53;;;2.13;;
9280;SDS011;4679;47.966;7.958;2022-10-10T17:09:00;7.20;;;1.57;;
9280;SDS011;4679;47.966;7.958;2022-10-10T17:11:05;9.93;;;1.80;;
9280;SDS011;4679;47.966;7.958;2022-10-10T17:13:07;7.27;;;1.70;;
9280;SDS011;4679;47.966;7.958;2022-10-10T17:15:09;8.60;;;1.67;;
9280;SDS011;4679;47.966;7.958;2022-10-10T17:17:11;7.37;;;1.67;;
9280;SDS011;4679;47.966;7.958;2022-10-10T17:19:12;2.70;;;1.40;;
9280;SDS011;4679;47.966;7.958;2022-10-10T17:21:15;4.73;;;1.47;;
9280;SDS011;4679;47.966;7.958;2022-10-10T17:23:18;5.20;;;1.63;;
9280;SDS011;4679;47.966;7.958;2022-10-10T17:25:21;10.53;;;2.40;;
9280;SDS011;4679;47.966;7.958;2022-10-10T17:27:23;6.30;;;2.10;;
9280;SDS011;4679;47.966;7.958;2022-10-10T17:29:25;6.83;;;3.03;;
9280;SDS011;4679;47.966;7.958;2022-10-10T17:31:26;10.47;;;2.70;;
9280;SDS011;4679;47.966;7.958;2022-10-10T17:33:28;9.73;;;2.53;;
9280;SDS011;4679;47.966;7.958;2022-10-10T17:35:30;8.97;;;2.93;;
9280;SDS011;4679;47.966;7.958;2022-10-10T17:37:32;8.40;;;1.87;;
9280;SDS011;4679;47.966;7.958;2022-10-10T17:39:33;10.10;;;2.33;;
9280;SDS011;4679;47.966;7.958;2022-10-10T17:41:37;4.03;;;1.97;;
9280;SDS011;4679;47.966;7.958;2022-10-10T17:43:38;5.83;;;2.37;;
9280;SDS011;4679;47.966;7.958;2022-10-10T17:45:40;5.60;;;2.03;;
9280;SDS011;4679;47.966;7.958;2022-10-10T17:47:42;5.60;;;1.90;;
9280;SDS011;4679;47.966;7.958;2022-10-10T17:49:44;7.70;;;2.30;;
9280;SDS011;4679;47.966;7.958;2022-10-10T17:51:46;7.27;;;2.13;;
9280;SDS011;4679;47.966;7.958;2022-10-10T17:53:47;4.37;;;1.70;;
9280;SDS011;4679;47.966;7.958;2022-10-10T17:55:50;5.27;;;2.37;;
9280;SDS011;4679;47.966;7.958;2022-10-10T17:57:53;10.13;;;2.20;;
9280;SDS011;4679;47.966;7.958;2022-10-10T17:59:55;10.97;;;2.03;;
9280;SDS011;4679;47.966;7.958;2022-10-10T18:01:57;8.97;;;1.93;;
9280;SDS011;4679;47.966;7.958;2022-10-10T18:03:59;5.23;;;1.67;;
9280;SDS011;4679;47.966;7.958;2022-10-10T18:06:04;8.03;;;1.80;;
9280;SDS011;4679;47.966;7.958;2022-10-10T18:08:07;9.43;;;2.47;;
9280;SDS011;4679;47.966;7.958;2022-10-10T18:10:09;6.03;;;1.90;;
9280;SDS011;4679;47.966;7.958;2022-10-10T18:12:10;6.30;;;2.27;;
9280;SDS011;4679;47.966;7.958;2022-10-10T18:14:14;7.90;;;2.07;;
9280;SDS011;4679;47.966;7.958;2022-10-10T18:16:16;4.10;;;2.13;;
9280;SDS011;4679;47.966;7.958;2022-10-10T18:18:19;6.77;;;1.67;;
9280;SDS011;4679;47.966;7.958;2022-10-10T18:20:21;7.33;;;1.87;;
9280;SDS011;4679;47.966;7.958;2022-10-10T18:22:23;9.27;;;2.70;;
9280;SDS011;4679;47.966;7.958;2022-10-10T18:24:25;5.30;;;1.80;;
9280;SDS011;4679;47.966;7.958;2022-10-10T18:26:27;6.67;;;1.60;;
9280;SDS011;4679;47.966;7.958;2022-10-10T18:28:30;4.63;;;1.47;;
9280;SDS011;4679;47.966;7.958;2022-10-10T18:30:38;4.87;;;2.30;;
9280;SDS011;4679;47.966;7.958;2022-10-10T18:32:40;3.30;;;1.67;;
9280;SDS011;4679;47.966;7.958;2022-10-10T18:34:41;8.73;;;1.90;;
9280;SDS011;4679;47.966;7.958;2022-10-10T18:36:43;6.27;;;2.00;;
9280;SDS011;4679;47.966;7.958;2022-10-10T18:38:45;6.37;;;1.83;;
9280;SDS011;4679;47.966;7.958;2022-10-10T18:42:56;7.20;;;2.47;;
9280;SDS011;4679;47.966;7.958;2022-10-10T18:44:58;6.50;;;1.70;;
9280;SDS011;4679;47.966;7.958;2022-10-10T18:47:01;4.30;;;2.10;;
9280;SDS011;4679;47.966;7.958;2022-10-10T18:49:03;9.17;;;2.33;;
9280;SDS011;4679;47.966;7.958;2022-10-10T18:51:10;6.33;;;2.27;;
9280;SDS011;4679;47.966;7.958;2022-10-10T18:53:13;4.67;;;2.53;;
9280;SDS011;4679;47.966;7.958;2022-10-10T18:55:15;6.53;;;2.53;;
9280;SDS011;4679;47.966;7.958;2022-10-10T18:57:18;3.13;;;2.00;;
9280;SDS011;4679;47.966;7.958;2022-10-10T18:59:19;8.93;;;2.53;;
9280;SDS011;4679;47.966;7.958;2022-10-10T19:01:22;13.77;;;2.60;;
9280;SDS011;4679;47.966;7.958;2022-10-10T19:03:25;6.37;;;1.93;;
9280;SDS011;4679;47.966;7.958;2022-10-10T19:05:27;6.83;;;1.97;;
9280;SDS011;4679;47.966;7.958;2022-10-10T19:07:29;3.23;;;1.80;;
9280;SDS011;4679;47.966;7.958;2022-10-10T19:09:31;7.80;;;2.50;;
9280;SDS011;4679;47.966;7.958;2022-10-10T19:11:34;8.77;;;2.23;;
9280;SDS011;4679;47.966;7.958;2022-10-10T19:13:38;6.30;;;1.90;;
9280;SDS011;4679;47.966;7.958;2022-10-10T19:15:40;10.00;;;2.10;;
9280;SDS011;4679;47.966;7.958;2022-10-10T19:17:41;8.80;;;1.80;;
9280;SDS011;4679;47.966;7.958;2022-10-10T19:19:45;3.63;;;1.93;;
9280;SDS011;4679;47.966;7.958;2022-10-10T19:21:48;4.87;;;2.23;;
9280;SDS011;4679;47.966;7.958;2022-10-10T19:23:50;6.67;;;2.20;;
9280;SDS011;4679;47.966;7.958;2022-10-10T19:25:52;5.80;;;2.10;;
9280;SDS011;4679;47.966;7.958;2022-10-10T19:27:53;5.53;;;2.23;;
9280;SDS011;4679;47.966;7.958;2022-10-10T19:29:55;7.33;;;2.10;;
9280;SDS011;4679;47.966;7.958;2022-10-10T19:31:58;5.57;;;1.87;;
9280;SDS011;4679;47.966;7.958;2022-10-10T19:34:00;5.37;;;1.90;;
9280;SDS011;4679;47.966;7.958;2022-10-10T19:36:04;5.13;;;2.20;;